Time;durP1;ratioP1;P1;durP2;ratioP2;P2;SDS_P1;SDS_P2;PMS_P1;PMS_P2;Temp;Humidity;BMP_temperature;BMP_pressure;BME280_temperature;BME280_humidity;BME280_pressure;Samples;Min_cycle;Max_cycle;Signal;HPM_P1;HPM_P2
2021/08/02 00:02:26;;;;;;;;;;;;;;;;;;5040832;28;1360;-49
2021/08/02 00:04:52;;;;;;;;;;;;;;;;;;5023130;28;1902;-51
2021/08/02 00:07:18;;;;;;;;;;;;;;;;;;5024382;28;1460;-50
2021/08/02 00:09:44;;;;;;;;;;;;;;;;;;5039208;28;1596;-52
2021/08/02 00:12:09;;;;;;;;;;;;;;;;;;5021979;28;1804;-51
2021/08/02 00:14:34;;;;;;;;;;;;;;;;;;5038367;28;1301;-50
2021/08/02 00:17:00;;;;;;;;;;;;;;;;;;5040212;28;1482;-49
2021/08/02 00:19:26;;;;;;;;;;;;;;;;;;5039552;28;1552;-50
2021/08/02 00:21:51;;;;;;;;;;;;;;;;;;5040533;28;1338;-51
2021/08/02 00:24:16;;;;;;;;;;;;;;;;;;5040328;28;1972;-50
2021/08/02 00:26:42;;;;;;;;;;;;;;;;;;5039612;28;1688;-50
2021/08/02 00:29:07;;;;;;;;;;;;;;;;;;5023784;28;1122;-49
2021/08/02 00:31:32;;;;;;;;;;;;;;;;;;5041042;28;1277;-50
2021/08/02 00:33:57;;;;;;;;;;;;;;;;;;5040081;28;1567;-50
2021/08/02 00:36:32;;;;;;;;;;;;;;;;;;5041631;28;1153;-52
2021/08/02 00:38:57;;;;;;;;;;;;;;;;;;5036594;28;1619;-52
2021/08/02 00:41:25;;;;;;;;;;;;;;;;;;5039338;28;1809;-49
2021/08/02 00:43:54;;;;;;;;;;;;;;;;;;5039442;28;1117;-51
2021/08/02 00:46:20;;;;;;;;;;;;;;;;;;5040463;28;1963;-52
2021/08/02 00:48:57;;;;;;;;;;;;;;;;;;5021043;28;1600;-49
2021/08/02 00:51:22;;;;;;;;;;;;;;;;;;5053568;23;3651;-55
2021/08/02 00:53:48;;;;;;;;;;;;;;;;;;5040771;28;1283;-54
2021/08/02 00:56:13;;;;;;;;;;;;;;;;;;5036733;28;1442;-52
2021/08/02 00:58:38;;;;;;;;;;;;;;;;;;5032227;28;1533;-53
2021/08/02 01:01:03;;;;;;;;;;;;;;;;;;4953016;28;1737;-51
2021/08/02 01:03:29;;;;;;;;;;;;;;;;;;5037919;28;1085;-53
2021/08/02 01:05:54;;;;;;;;;;;;;;;;;;5039440;28;1953;-52
2021/08/02 01:08:22;;;;;;;;;;;;;;;;;;5037559;28;1577;-53
2021/08/02 01:10:50;;;;;;;;;;;;;;;;;;5038705;28;1573;-53
2021/08/02 01:13:16;;;;;;;;;;;;;;;;;;5035632;28;1725;-52
2021/08/02 01:15:44;;;;;;;;;;;;;;;;;;5038386;28;1685;-52
2021/08/02 01:18:10;;;;;;;;;;;;;;;;;;5021778;28;1168;-52
2021/08/02 01:20:35;;;;;;;;;;;;;;;;;;5022094;28;1469;-53
2021/08/02 01:23:02;;;;;;;;;;;;;;;;;;5020670;28;1597;-52
2021/08/02 01:25:33;;;;;;;;;;;;;;;;;;5038304;28;1902;-52
2021/08/02 01:28:13;;;;;;;;;;;;;;;;;;5038306;28;1007;-53
2021/08/02 01:30:39;;;;;;;;;;;;;;;;;;5039397;28;1063;-52
2021/08/02 01:33:04;;;;;;;;;;;;;;;;;;5039073;28;1286;-50
2021/08/02 01:35:29;;;;;;;;;;;;;;;;;;5038239;28;1917;-53
2021/08/02 01:37:54;;;;;;;;;;;;;;;;;;5039591;28;1116;-52
2021/08/02 01:40:19;;;;;;;;;;;;;;;;;;5020895;28;1225;-53
2021/08/02 01:42:45;;;;;;;;;;;;;;;;;;5037994;28;1808;-53
2021/08/02 01:45:10;;;;;;;;;;;;;;;;;;5040326;28;1902;-53
2021/08/02 01:47:44;;;;;;;;;;;;;;;;;;5035986;28;1541;-52
2021/08/02 01:50:09;;;;;;;;;;;;;;;;;;5037850;28;1125;-52
2021/08/02 01:52:39;;;;;;;;;;;;;;;;;;5038986;28;1264;-53
2021/08/02 01:55:24;;;;;;;;;;;;;;;;;;5022074;28;1121;-53
2021/08/02 01:57:54;;;;;;;;;;;;;;;;;;5038652;28;1358;-51
2021/08/02 02:00:19;;;;;;;;;;;;;;;;;;5038203;28;1184;-51
2021/08/02 02:02:51;;;;;;;;;;;;;;;;;;5039012;28;1349;-53
2021/08/02 02:05:17;;;;;;;;;;;;;;;;;;5033845;28;1962;-53
2021/08/02 02:07:49;;;;;;;;;;;;;;;;;;5037644;28;1500;-52
2021/08/02 02:10:15;;;;;;;;;;;;;;;;;;5037274;28;1454;-51
2021/08/02 02:12:43;;;;;;;;;;;;;;;;;;5036278;28;1599;-53
2021/08/02 02:15:09;;;;;;;;;;;;;;;;;;5039182;28;1184;-53
2021/08/02 02:17:35;;;;;;;;;;;;;;;;;;5023282;28;1149;-52
2021/08/02 02:20:00;;;;;;;;;;;;;;;;;;5038114;28;1566;-53
2021/08/02 02:22:25;;;;;;;;;;;;;;;;;;5022305;28;1262;-53
2021/08/02 02:24:50;;;;;;;;;;;;;;;;;;5019380;28;1915;-52
2021/08/02 02:27:16;;;;;;;;;;;;;;;;;;5037468;28;1621;-53
2021/08/02 02:29:41;;;;;;;;;;;;;;;;;;5019251;28;1540;-52
2021/08/02 02:32:06;;;;;;;;;;;;;;;;;;5020257;28;1324;-53
2021/08/02 02:34:32;;;;;;;;;;;;;;;;;;5038791;28;1173;-52
2021/08/02 02:36:57;;;;;;;;;;;;;;;;;;5019375;28;1603;-53
2021/08/02 02:39:22;;;;;;;;;;;;;;;;;;5023755;28;1249;-50
2021/08/02 02:41:47;;;;;;;;;;;;;;;;;;5016805;28;1571;-53
2021/08/02 02:44:12;;;;;;;;;;;;;;;;;;5020129;28;1959;-53
2021/08/02 02:46:38;;;;;;;;;;;;;;;;;;5037996;28;1172;-52
2021/08/02 02:49:03;;;;;;;;;;;;;;;;;;5018546;28;1519;-53
2021/08/02 02:51:28;;;;;;;;;;;;;;;;;;5018476;28;1662;-53
2021/08/02 02:53:53;;;;;;;;;;;;;;;;;;5020868;28;1327;-52
2021/08/02 02:56:19;;;;;;;;;;;;;;;;;;5037508;28;1594;-50
2021/08/02 02:58:44;;;;;;;;;;;;;;;;;;5035497;28;1563;-52
2021/08/02 03:01:10;;;;;;;;;;;;;;;;;;5039702;28;1290;-53
2021/08/02 03:03:36;;;;;;;;;;;;;;;;;;5020528;28;1165;-52
2021/08/02 03:06:01;;;;;;;;;;;;;;;;;;5018382;28;1914;-52
2021/08/02 03:08:26;;;;;;;;;;;;;;;;;;5022821;28;1110;-52
2021/08/02 03:10:52;;;;;;;;;;;;;;;;;;5018897;28;1614;-52
2021/08/02 03:13:17;;;;;;;;;;;;;;;;;;5019250;28;1562;-50
2021/08/02 03:15:42;;;;;;;;;;;;;;;;;;5037230;28;1074;-53
2021/08/02 03:18:07;;;;;;;;;;;;;;;;;;5039037;28;1152;-53
2021/08/02 03:20:33;;;;;;;;;;;;;;;;;;5038807;28;1609;-51
2021/08/02 03:22:59;;;;;;;;;;;;;;;;;;5037749;28;1280;-53
2021/08/02 03:25:33;;;;;;;;;;;;;;;;;;5037895;28;1973;-54
2021/08/02 03:28:04;;;;;;;;;;;;;;;;;;5020577;28;1134;-52
2021/08/02 03:30:29;;;;;;;;;;;;;;;;;;5037823;28;1417;-53
2021/08/02 03:32:55;;;;;;;;;;;;;;;;;;5021495;28;1298;-53
2021/08/02 03:35:20;;;;;;;;;;;;;;;;;;5037043;28;1572;-52
2021/08/02 03:37:45;;;;;;;;;;;;;;;;;;5038636;28;1414;-52
2021/08/02 03:40:14;;;;;;;;;;;;;;;;;;5021530;28;1955;-53
2021/08/02 03:42:39;;;;;;;;;;;;;;;;;;5019113;28;1647;-53
2021/08/02 03:45:05;;;;;;;;;;;;;;;;;;5019221;28;1966;-51
2021/08/02 03:47:30;;;;;;;;;;;;;;;;;;5040238;28;1125;-52
2021/08/02 03:49:55;;;;;;;;;;;;;;;;;;5038979;28;1553;-53
2021/08/02 03:52:20;;;;;;;;;;;;;;;;;;5025823;28;1297;-51
2021/08/02 03:54:45;;;;;;;;;;;;;;;;;;5041576;28;1436;-52
2021/08/02 03:57:11;;;;;;;;;;;;;;;;;;5041088;28;1605;-52
2021/08/02 03:59:36;;;;;;;;;;;;;;;;;;5017181;28;1679;-52
2021/08/02 04:02:01;;;;;;;;;;;;;;;;;;5042988;28;1295;-54
2021/08/02 04:04:26;;;;;;;;;;;;;;;;;;5040839;28;1973;-51
2021/08/02 04:06:51;;;;;;;;;;;;;;;;;;5041402;28;1144;-51
2021/08/02 04:09:17;;;;;;;;;;;;;;;;;;5041921;28;1668;-52
2021/08/02 04:11:42;;;;;;;;;;;;;;;;;;5040391;28;1604;-53
2021/08/02 04:14:07;;;;;;;;;;;;;;;;;;5042116;28;1144;-52
2021/08/02 04:16:33;;;;;;;;;;;;;;;;;;5040286;28;1496;-51
2021/08/02 04:18:58;;;;;;;;;;;;;;;;;;5042042;28;1125;-52
2021/08/02 04:21:23;;;;;;;;;;;;;;;;;;5037917;28;1566;-51
2021/08/02 04:23:48;;;;;;;;;;;;;;;;;;5041859;28;1129;-52
2021/08/02 04:26:13;;;;;;;;;;;;;;;;;;5034194;28;1965;-52
2021/08/02 04:28:39;;;;;;;;;;;;;;;;;;5041641;28;1228;-51
2021/08/02 04:31:04;;;;;;;;;;;;;;;;;;5041366;28;1375;-53
2021/08/02 04:33:29;;;;;;;;;;;;;;;;;;5041092;28;1189;-52
2021/08/02 04:35:54;;;;;;;;;;;;;;;;;;5039485;28;1622;-52
2021/08/02 04:38:20;;;;;;;;;;;;;;;;;;5041534;28;1091;-51
2021/08/02 04:40:45;;;;;;;;;;;;;;;;;;5039656;28;1597;-52
2021/08/02 04:43:10;;;;;;;;;;;;;;;;;;5040509;28;1361;-51
2021/08/02 04:45:35;;;;;;;;;;;;;;;;;;5041881;28;1959;-52
2021/08/02 04:48:01;;;;;;;;;;;;;;;;;;5037314;28;1510;-53
2021/08/02 04:50:26;;;;;;;;;;;;;;;;;;5041577;28;1220;-53
2021/08/02 04:52:51;;;;;;;;;;;;;;;;;;5034448;28;1635;-53
2021/08/02 04:55:17;;;;;;;;;;;;;;;;;;5038526;28;2070;-52
2021/08/02 04:57:42;;;;;;;;;;;;;;;;;;5037413;28;1598;-53
2021/08/02 05:00:07;;;;;;;;;;;;;;;;;;5038481;28;1456;-52
2021/08/02 05:02:32;;;;;;;;;;;;;;;;;;5040834;28;1362;-53
2021/08/02 05:04:58;;;;;;;;;;;;;;;;;;5039620;28;1914;-53
2021/08/02 05:07:23;;;;;;;;;;;;;;;;;;5038307;28;1557;-53
2021/08/02 05:09:48;;;;;;;;;;;;;;;;;;5040126;28;1163;-53
2021/08/02 05:12:13;;;;;;;;;;;;;;;;;;5031278;28;1645;-51
2021/08/02 05:14:39;;;;;;;;;;;;;;;;;;5039458;28;1601;-53
2021/08/02 05:17:04;;;;;;;;;;;;;;;;;;5040250;28;1208;-53
2021/08/02 05:19:29;;;;;;;;;;;;;;;;;;5039096;28;1625;-53
2021/08/02 05:21:54;;;;;;;;;;;;;;;;;;5039948;28;1280;-52
2021/08/02 05:24:19;;;;;;;;;;;;;;;;;;5041476;28;1918;-53
2021/08/02 05:26:44;;;;;;;;;;;;;;;;;;5037815;28;1581;-53
2021/08/02 05:29:10;;;;;;;;;;;;;;;;;;5041148;28;1161;-51
2021/08/02 05:31:35;;;;;;;;;;;;;;;;;;5039963;28;1365;-52
2021/08/02 05:34:00;;;;;;;;;;;;;;;;;;5041406;28;1208;-53
2021/08/02 05:36:25;;;;;;;;;;;;;;;;;;5039787;28;1614;-53
2021/08/02 05:38:50;;;;;;;;;;;;;;;;;;5039698;28;1064;-53
2021/08/02 05:41:15;;;;;;;;;;;;;;;;;;5039560;28;1613;-50
2021/08/02 05:43:41;;;;;;;;;;;;;;;;;;5040741;28;1177;-52
2021/08/02 05:46:06;;;;;;;;;;;;;;;;;;5041129;28;1918;-50
2021/08/02 05:48:31;;;;;;;;;;;;;;;;;;5036353;28;1570;-52
2021/08/02 05:50:56;;;;;;;;;;;;;;;;;;5039710;28;1294;-52
2021/08/02 05:53:22;;;;;;;;;;;;;;;;;;5040650;28;1213;-52
2021/08/02 05:55:47;;;;;;;;;;;;;;;;;;5039029;28;1769;-52
2021/08/02 05:58:12;;;;;;;;;;;;;;;;;;5039300;28;1169;-53
2021/08/02 06:00:38;;;;;;;;;;;;;;;;;;5038949;28;1260;-52
2021/08/02 06:03:03;;;;;;;;;;;;;;;;;;5040108;28;1295;-52
2021/08/02 06:05:28;;;;;;;;;;;;;;;;;;5040125;28;1973;-53
2021/08/02 06:07:53;;;;;;;;;;;;;;;;;;5040676;28;1170;-52
2021/08/02 06:10:18;;;;;;;;;;;;;;;;;;5038978;28;1177;-52
2021/08/02 06:12:43;;;;;;;;;;;;;;;;;;5038269;28;1759;-52
2021/08/02 06:15:10;;;;;;;;;;;;;;;;;;5040895;28;1172;-52
2021/08/02 06:17:36;;;;;;;;;;;;;;;;;;5022790;28;1232;-53
2021/08/02 06:20:01;;;;;;;;;;;;;;;;;;5037437;28;1665;-52
2021/08/02 06:22:26;;;;;;;;;;;;;;;;;;5039011;28;1375;-53
2021/08/02 06:24:51;;;;;;;;;;;;;;;;;;5040989;28;1894;-53
2021/08/02 06:27:16;;;;;;;;;;;;;;;;;;5037746;28;1525;-53
2021/08/02 06:29:41;;;;;;;;;;;;;;;;;;5038773;28;1255;-53
2021/08/02 06:32:07;;;;;;;;;;;;;;;;;;5038426;28;1296;-52
2021/08/02 06:34:32;;;;;;;;;;;;;;;;;;5039176;28;1625;-53
2021/08/02 06:36:57;;;;;;;;;;;;;;;;;;5040268;28;1193;-52
2021/08/02 06:39:22;;;;;;;;;;;;;;;;;;5034117;28;1561;-53
2021/08/02 06:41:48;;;;;;;;;;;;;;;;;;5036934;28;1553;-53
2021/08/02 06:44:13;;;;;;;;;;;;;;;;;;5039113;28;1228;-53
2021/08/02 06:46:38;;;;;;;;;;;;;;;;;;5037090;28;3048;-51
2021/08/02 06:49:03;;;;;;;;;;;;;;;;;;5037893;28;1592;-51
2021/08/02 06:51:34;;;;;;;;;;;;;;;;;;5038420;28;1294;-53
2021/08/02 06:53:59;;;;;;;;;;;;;;;;;;5038324;28;1125;-54
2021/08/02 06:56:24;;;;;;;;;;;;;;;;;;5038229;28;1601;-53
2021/08/02 06:58:50;;;;;;;;;;;;;;;;;;5040451;28;1042;-52
2021/08/02 07:01:15;;;;;;;;;;;;;;;;;;5037566;28;1294;-53
2021/08/02 07:03:40;;;;;;;;;;;;;;;;;;5036250;28;1576;-52
2021/08/02 07:06:06;;;;;;;;;;;;;;;;;;5039161;28;1963;-53
2021/08/02 07:08:31;;;;;;;;;;;;;;;;;;5039943;28;1224;-53
2021/08/02 07:10:56;;;;;;;;;;;;;;;;;;5036098;28;1599;-53
2021/08/02 07:13:21;;;;;;;;;;;;;;;;;;5038815;28;1118;-53
2021/08/02 07:15:46;;;;;;;;;;;;;;;;;;5034314;28;1566;-53
2021/08/02 07:18:12;;;;;;;;;;;;;;;;;;5038583;28;1335;-54
2021/08/02 07:20:37;;;;;;;;;;;;;;;;;;5037272;28;1508;-53
2021/08/02 07:23:02;;;;;;;;;;;;;;;;;;5041380;28;1284;-53
2021/08/02 07:25:27;;;;;;;;;;;;;;;;;;5039172;28;1967;-53
2021/08/02 07:27:52;;;;;;;;;;;;;;;;;;5041566;28;1389;-53
2021/08/02 07:30:18;;;;;;;;;;;;;;;;;;5044128;28;1181;-52
2021/08/02 07:32:43;;;;;;;;;;;;;;;;;;5040288;28;1346;-53
2021/08/02 07:35:08;;;;;;;;;;;;;;;;;;5043333;28;1301;-53
2021/08/02 07:37:33;;;;;;;;;;;;;;;;;;5040952;28;1577;-53
2021/08/02 07:39:58;;;;;;;;;;;;;;;;;;5043409;28;1196;-51
2021/08/02 07:42:25;;;;;;;;;;;;;;;;;;5036768;28;1554;-54
2021/08/02 07:44:50;;;;;;;;;;;;;;;;;;5042127;28;1938;-52
2021/08/02 07:47:16;;;;;;;;;;;;;;;;;;5041768;28;1386;-52
2021/08/02 07:49:41;;;;;;;;;;;;;;;;;;5035361;28;1699;-53
2021/08/02 07:52:06;;;;;;;;;;;;;;;;;;5042116;28;1302;-53
2021/08/02 07:54:31;;;;;;;;;;;;;;;;;;5042891;28;1219;-54
2021/08/02 07:56:56;;;;;;;;;;;;;;;;;;5032791;28;1686;-53
2021/08/02 07:59:22;;;;;;;;;;;;;;;;;;5042569;28;1113;-53
2021/08/02 08:01:47;;;;;;;;;;;;;;;;;;5042331;28;1376;-53
2021/08/02 08:04:12;;;;;;;;;;;;;;;;;;5041854;28;1244;-53
2021/08/02 08:06:37;;;;;;;;;;;;;;;;;;5038696;28;2026;-53
2021/08/02 08:09:02;;;;;;;;;;;;;;;;;;5043099;28;1125;-51
2021/08/02 08:11:27;;;;;;;;;;;;;;;;;;5038487;28;1602;-53
2021/08/02 08:13:53;;;;;;;;;;;;;;;;;;5041286;28;1366;-53
2021/08/02 08:16:18;;;;;;;;;;;;;;;;;;5041578;28;1295;-52
2021/08/02 08:18:43;;;;;;;;;;;;;;;;;;5037913;28;1527;-52
2021/08/02 08:21:08;;;;;;;;;;;;;;;;;;5042580;28;1258;-52
2021/08/02 08:23:34;;;;;;;;;;;;;;;;;;5033687;28;1550;-53
2021/08/02 08:25:59;;;;;;;;;;;;;;;;;;5039068;28;1906;-53
2021/08/02 08:28:24;;;;;;;;;;;;;;;;;;5037907;28;1448;-53
2021/08/02 08:30:49;;;;;;;;;;;;;;;;;;5039341;28;1217;-53
2021/08/02 08:33:14;;;;;;;;;;;;;;;;;;5039726;28;1654;-51
2021/08/02 08:35:39;;;;;;;;;;;;;;;;;;5036138;28;1705;-54
2021/08/02 08:38:05;;;;;;;;;;;;;;;;;;5038035;28;1180;-53
2021/08/02 08:40:31;;;;;;;;;;;;;;;;;;5040432;28;1609;-52
2021/08/02 08:42:56;;;;;;;;;;;;;;;;;;5023857;28;1309;-55
2021/08/02 08:45:21;;;;;;;;;;;;;;;;;;5037682;28;1887;-53
2021/08/02 08:47:47;;;;;;;;;;;;;;;;;;5040895;28;1192;-53
2021/08/02 08:50:12;;;;;;;;;;;;;;;;;;5034481;28;1469;-53
2021/08/02 08:52:37;;;;;;;;;;;;;;;;;;5036052;28;1506;-56
2021/08/02 08:55:06;;;;;;;;;;;;;;;;;;5038933;28;1516;-55
2021/08/02 08:57:31;;;;;;;;;;;;;;;;;;5037462;28;1560;-56
2021/08/02 08:59:56;;;;;;;;;;;;;;;;;;5038373;28;1114;-56
2021/08/02 09:02:23;;;;;;;;;;;;;;;;;;5039423;28;1372;-56
2021/08/02 09:04:52;;;;;;;;;;;;;;;;;;5037994;28;1902;-57
2021/08/02 09:07:17;;;;;;;;;;;;;;;;;;5040073;28;1184;-56
2021/08/02 09:09:42;;;;;;;;;;;;;;;;;;5037775;28;1189;-54
2021/08/02 09:12:08;;;;;;;;;;;;;;;;;;5035941;28;1593;-54
2021/08/02 09:14:34;;;;;;;;;;;;;;;;;;5038839;28;1180;-52
2021/08/02 09:17:00;;;;;;;;;;;;;;;;;;5035130;28;1662;-55
2021/08/02 09:19:26;;;;;;;;;;;;;;;;;;5035429;28;1704;-54
2021/08/02 09:21:53;;;;;;;;;;;;;;;;;;5020440;28;2168;-55
2021/08/02 09:24:28;;;;;;;;;;;;;;;;;;5037600;28;1313;-54
2021/08/02 09:26:53;;;;;;;;;;;;;;;;;;5035827;28;1541;-55
2021/08/02 09:29:25;;;;;;;;;;;;;;;;;;5018626;28;1130;-53
2021/08/02 09:31:50;;;;;;;;;;;;;;;;;;5038868;28;1358;-55
2021/08/02 09:34:16;;;;;;;;;;;;;;;;;;5035158;28;1605;-55
2021/08/02 09:36:42;;;;;;;;;;;;;;;;;;5038684;28;1129;-56
2021/08/02 09:39:07;;;;;;;;;;;;;;;;;;5039171;28;1165;-56
2021/08/02 09:41:33;;;;;;;;;;;;;;;;;;5035952;28;1450;-52
2021/08/02 09:43:58;;;;;;;;;;;;;;;;;;5034127;28;1632;-54
2021/08/02 09:46:23;;;;;;;;;;;;;;;;;;5032622;28;1906;-54
2021/08/02 09:48:48;;;;;;;;;;;;;;;;;;5037057;28;1187;-55
2021/08/02 09:51:17;;;;;;;;;;;;;;;;;;5035583;28;1673;-56
2021/08/02 09:53:46;;;;;;;;;;;;;;;;;;5037273;28;1055;-53
2021/08/02 09:56:13;;;;;;;;;;;;;;;;;;5035109;28;1636;-53
2021/08/02 09:58:38;;;;;;;;;;;;;;;;;;5022421;28;1173;-54
2021/08/02 10:01:03;;;;;;;;;;;;;;;;;;5038453;28;1343;-55
2021/08/02 10:03:29;;;;;;;;;;;;;;;;;;5034061;28;1521;-55
2021/08/02 10:05:54;;;;;;;;;;;;;;;;;;5036622;28;1898;-56
2021/08/02 10:08:19;;;;;;;;;;;;;;;;;;5036054;28;1424;-52
2021/08/02 10:10:44;;;;;;;;;;;;;;;;;;5036999;28;1676;-53
2021/08/02 10:13:10;;;;;;;;;;;;;;;;;;5036125;28;1457;-56
2021/08/02 10:15:35;;;;;;;;;;;;;;;;;;5035874;28;1796;-54
2021/08/02 10:18:01;;;;;;;;;;;;;;;;;;5033959;28;1031;-55
2021/08/02 10:20:27;;;;;;;;;;;;;;;;;;5012501;28;1539;-55
2021/08/02 10:22:52;;;;;;;;;;;;;;;;;;5031248;28;1313;-55
2021/08/02 10:25:17;;;;;;;;;;;;;;;;;;5034967;28;1936;-55
2021/08/02 10:27:42;;;;;;;;;;;;;;;;;;5018997;28;1793;-56
2021/08/02 10:30:20;;;;;;;;;;;;;;;;;;5035180;28;1589;-57
2021/08/02 10:32:50;;;;;;;;;;;;;;;;;;5036459;28;1301;-55
2021/08/02 10:35:15;;;;;;;;;;;;;;;;;;5037489;28;1240;-54
2021/08/02 10:37:40;;;;;;;;;;;;;;;;;;5037596;28;1480;-55
2021/08/02 10:40:06;;;;;;;;;;;;;;;;;;5038594;28;1577;-55
2021/08/02 10:42:32;;;;;;;;;;;;;;;;;;5032863;28;1569;-55
2021/08/02 10:44:57;;;;;;;;;;;;;;;;;;5029501;28;1970;-53
2021/08/02 10:47:23;;;;;;;;;;;;;;;;;;5032586;28;1139;-55
2021/08/02 10:49:48;;;;;;;;;;;;;;;;;;5030147;28;1572;-56
2021/08/02 10:52:23;;;;;;;;;;;;;;;;;;5033082;28;2151;-55
2021/08/02 10:54:48;;;;;;;;;;;;;;;;;;5019893;28;1130;-54
2021/08/02 10:57:14;;;;;;;;;;;;;;;;;;5037261;28;1656;-56
2021/08/02 10:59:39;;;;;;;;;;;;;;;;;;5043828;28;1886;-54
2021/08/02 11:02:07;;;;;;;;;;;;;;;;;;5037787;28;1624;-56
2021/08/02 11:04:32;;;;;;;;;;;;;;;;;;5038939;28;1910;-54
2021/08/02 11:06:58;;;;;;;;;;;;;;;;;;5040727;28;1149;-54
2021/08/02 11:09:29;;;;;;;;;;;;;;;;;;5022186;28;1804;-56
2021/08/02 11:12:04;;;;;;;;;;;;;;;;;;5041145;28;1617;-53
2021/08/02 11:14:29;;;;;;;;;;;;;;;;;;5036680;28;1792;-54
2021/08/02 11:16:54;;;;;;;;;;;;;;;;;;5041605;28;1053;-55
2021/08/02 11:19:37;;;;;;;;;;;;;;;;;;5040856;28;1384;-56
2021/08/02 11:22:04;;;;;;;;;;;;;;;;;;5039082;28;1546;-56
2021/08/02 11:24:30;;;;;;;;;;;;;;;;;;5040981;28;1910;-55
2021/08/02 11:26:56;;;;;;;;;;;;;;;;;;5039603;28;1558;-55
2021/08/02 11:29:36;;;;;;;;;;;;;;;;;;5040084;28;1373;-55
2021/08/02 11:32:03;;;;;;;;;;;;;;;;;;5038250;28;1541;-56
2021/08/02 11:34:29;;;;;;;;;;;;;;;;;;5038717;28;1158;-54
2021/08/02 11:36:57;;;;;;;;;;;;;;;;;;5038033;28;1365;-55
2021/08/02 11:39:22;;;;;;;;;;;;;;;;;;5039910;28;1613;-55
2021/08/02 11:41:57;;;;;;;;;;;;;;;;;;5035762;28;1557;-51
2021/08/02 11:44:22;;;;;;;;;;;;;;;;;;5039054;28;1884;-55
2021/08/02 11:46:48;;;;;;;;;;;;;;;;;;5040042;28;1906;-55
2021/08/02 11:49:13;;;;;;;;;;;;;;;;;;5035897;28;1652;-51
2021/08/02 11:51:38;;;;;;;;;;;;;;;;;;5024543;28;1260;-52
2021/08/02 11:54:03;;;;;;;;;;;;;;;;;;5039873;28;1113;-54
2021/08/02 11:56:31;;;;;;;;;;;;;;;;;;5039125;28;1605;-56
2021/08/02 11:58:57;;;;;;;;;;;;;;;;;;5039590;28;1057;-55
2021/08/02 12:01:22;;;;;;;;;;;;;;;;;;5038872;28;1703;-56
2021/08/02 12:03:47;;;;;;;;;;;;;;;;;;5041380;28;1022;-54
2021/08/02 12:06:12;;;;;;;;;;;;;;;;;;5038230;28;1918;-55
2021/08/02 12:08:47;;;;;;;;;;;;;;;;;;5036102;28;1577;-52
2021/08/02 12:11:13;;;;;;;;;;;;;;;;;;5038556;28;1761;-54
2021/08/02 12:13:42;;;;;;;;;;;;;;;;;;5040679;28;1206;-52
2021/08/02 12:16:07;;;;;;;;;;;;;;;;;;5038756;28;1374;-53
2021/08/02 12:18:33;;;;;;;;;;;;;;;;;;5038335;28;1679;-53
2021/08/02 12:21:13;;;;;;;;;;;;;;;;;;5038186;28;1377;-51
2021/08/02 12:23:38;;;;;;;;;;;;;;;;;;5041191;28;1066;-53
2021/08/02 12:26:13;;;;;;;;;;;;;;;;;;5037415;28;1977;-51
2021/08/02 12:28:38;;;;;;;;;;;;;;;;;;5037423;28;1675;-53
2021/08/02 12:31:03;;;;;;;;;;;;;;;;;;5037518;28;1199;-53
2021/08/02 12:33:29;;;;;;;;;;;;;;;;;;5040042;28;1397;-53
2021/08/02 12:35:54;;;;;;;;;;;;;;;;;;5038262;28;1554;-52
2021/08/02 12:38:19;;;;;;;;;;;;;;;;;;5040380;28;1283;-53
2021/08/02 12:40:44;;;;;;;;;;;;;;;;;;5034798;28;1573;-54
2021/08/02 12:43:09;;;;;;;;;;;;;;;;;;5040805;28;1437;-50
2021/08/02 12:45:35;;;;;;;;;;;;;;;;;;5040349;28;1973;-50
2021/08/02 12:48:00;;;;;;;;;;;;;;;;;;5038152;28;1570;-53
2021/08/02 12:50:25;;;;;;;;;;;;;;;;;;5036835;28;1534;-51
2021/08/02 12:52:51;;;;;;;;;;;;;;;;;;5040084;28;1460;-54
2021/08/02 12:55:16;;;;;;;;;;;;;;;;;;5040553;28;1114;-51
2021/08/02 12:57:41;;;;;;;;;;;;;;;;;;5036366;28;1518;-52
2021/08/02 13:00:10;;;;;;;;;;;;;;;;;;5039633;28;1109;-52
2021/08/02 13:02:36;;;;;;;;;;;;;;;;;;5037102;28;1310;-52
2021/08/02 13:05:01;;;;;;;;;;;;;;;;;;5037999;28;1977;-52
2021/08/02 13:07:26;;;;;;;;;;;;;;;;;;5045112;23;1442;-90
2021/08/02 13:09:52;;;;;;;;;;;;;;;;;;4981357;28;1331;-90
2021/08/02 13:12:17;;;;;;;;;;;;;;;;;;4999719;28;1517;-90
2021/08/02 13:14:42;;;;;;;;;;;;;;;;;;4998613;28;1125;-90
2021/08/02 13:17:08;;;;;;;;;;;;;;;;;;4997390;28;1415;-90
2021/08/02 13:19:33;;;;;;;;;;;;;;;;;;4997762;28;1573;-90
2021/08/02 13:21:58;;;;;;;;;;;;;;;;;;4995567;28;1564;-90
2021/08/02 13:27:07;;;;;;;;;;;;;;;;;;4997198;28;1612;-90
2021/08/02 13:29:33;;;;;;;;;;;;;;;;;;4998130;28;1491;-89
2021/08/02 13:31:59;;;;;;;;;;;;;;;;;;4996412;28;1671;-89
2021/08/02 13:34:26;;;;;;;;;;;;;;;;;;4998913;28;1103;-90
2021/08/02 13:36:51;;;;;;;;;;;;;;;;;;4997322;28;1382;-89
2021/08/02 13:39:16;;;;;;;;;;;;;;;;;;4998039;28;1556;-91
2021/08/02 13:41:47;;;;;;;;;;;;;;;;;;5082727;27;2216;-51
2021/08/02 13:44:12;;;;;;;;;;;;;;;;;;5083642;28;1304;-51
2021/08/02 13:46:37;;;;;;;;;;;;;;;;;;5084959;28;1444;-50
2021/08/02 13:49:03;;;;;;;;;;;;;;;;;;5086451;28;1295;-53
2021/08/02 13:51:28;;;;;;;;;;;;;;;;;;5076266;28;2122;-53
2021/08/02 13:53:53;;;;;;;;;;;;;;;;;;5085587;28;1095;-53
2021/08/02 13:56:18;;;;;;;;;;;;;;;;;;5064251;28;2026;-53
2021/08/02 13:58:43;;;;;;;;;;;;;;;;;;5084292;28;1327;-54
2021/08/02 14:01:09;;;;;;;;;;;;;;;;;;5083971;28;1926;-52
2021/08/02 14:03:34;;;;;;;;;;;;;;;;;;5082803;28;1552;-51
2021/08/02 14:05:59;;;;;;;;;;;;;;;;;;5084190;28;1434;-52
2021/08/02 14:08:24;;;;;;;;;;;;;;;;;;5084468;28;1275;-51
2021/08/02 14:10:50;;;;;;;;;;;;;;;;;;5078118;28;1518;-52
2021/08/02 14:13:15;;;;;;;;;;;;;;;;;;5079539;28;1402;-51
2021/08/02 14:15:54;;;;;;;;;;;;;;;;;;5076005;28;1525;-51
2021/08/02 14:18:38;;;;;;;;;;;;;;;;;;5082878;28;1473;-53
2021/08/02 14:21:03;;;;;;;;;;;;;;;;;;5080382;28;1973;-50
2021/08/02 14:23:29;;;;;;;;;;;;;;;;;;5083896;28;1612;-52
2021/08/02 14:25:54;;;;;;;;;;;;;;;;;;5080428;28;1583;-52
2021/08/02 14:28:19;;;;;;;;;;;;;;;;;;5083438;28;1554;-51
2021/08/02 14:30:44;;;;;;;;;;;;;;;;;;5083471;28;1235;-51
2021/08/02 14:33:10;;;;;;;;;;;;;;;;;;5079401;28;1477;-52
2021/08/02 14:35:35;;;;;;;;;;;;;;;;;;5079949;28;1696;-50
2021/08/02 14:38:01;;;;;;;;;;;;;;;;;;5078906;28;1575;-52
2021/08/02 14:40:26;;;;;;;;;;;;;;;;;;5083692;28;1922;-50
2021/08/02 14:42:51;;;;;;;;;;;;;;;;;;5076646;28;1524;-52
2021/08/02 14:45:16;;;;;;;;;;;;;;;;;;5082904;28;1370;-52
2021/08/02 14:47:42;;;;;;;;;;;;;;;;;;5078268;28;1478;-51
2021/08/02 14:50:11;;;;;;;;;;;;;;;;;;5073820;28;1568;-52
2021/08/02 14:52:37;;;;;;;;;;;;;;;;;;5064717;28;1932;-50
2021/08/02 14:55:03;;;;;;;;;;;;;;;;;;5063878;28;1393;-52
2021/08/02 14:57:28;;;;;;;;;;;;;;;;;;5063985;28;1458;-52
2021/08/02 14:59:53;;;;;;;;;;;;;;;;;;5067842;28;1941;-51
2021/08/02 15:02:18;;;;;;;;;;;;;;;;;;5064569;28;1307;-52
2021/08/02 15:04:44;;;;;;;;;;;;;;;;;;5069325;28;1589;-52
2021/08/02 15:07:10;;;;;;;;;;;;;;;;;;5069071;28;986;-51
2021/08/02 15:09:35;;;;;;;;;;;;;;;;;;5068607;28;1496;-52
2021/08/02 15:12:00;;;;;;;;;;;;;;;;;;5067235;28;1604;-51
2021/08/02 15:14:25;;;;;;;;;;;;;;;;;;5068814;28;1675;-53
2021/08/02 15:16:57;;;;;;;;;;;;;;;;;;5070057;28;1231;-51
2021/08/02 15:19:23;;;;;;;;;;;;;;;;;;5066328;28;2084;-54
2021/08/02 15:21:51;;;;;;;;;;;;;;;;;;5068203;28;1104;-53
2021/08/02 15:24:17;;;;;;;;;;;;;;;;;;5066791;28;1410;-50
2021/08/02 15:26:43;;;;;;;;;;;;;;;;;;5067384;28;1577;-48
2021/08/02 15:29:08;;;;;;;;;;;;;;;;;;5062144;28;1504;-49
2021/08/02 15:31:34;;;;;;;;;;;;;;;;;;5062363;28;1556;-51
2021/08/02 15:33:59;;;;;;;;;;;;;;;;;;5065041;28;1331;-51
2021/08/02 15:36:24;;;;;;;;;;;;;;;;;;5066982;28;1560;-51
2021/08/02 15:38:50;;;;;;;;;;;;;;;;;;5067538;28;1387;-52
2021/08/02 15:41:15;;;;;;;;;;;;;;;;;;5067160;28;1898;-53
2021/08/02 15:43:45;;;;;;;;;;;;;;;;;;5062477;28;1611;-53
2021/08/02 15:46:10;;;;;;;;;;;;;;;;;;5066782;28;1085;-52
2021/08/02 15:48:35;;;;;;;;;;;;;;;;;;5066967;28;1374;-52
2021/08/02 15:51:05;;;;;;;;;;;;;;;;;;5069774;28;1279;-53
2021/08/02 15:53:30;;;;;;;;;;;;;;;;;;5065939;28;1647;-53
2021/08/02 15:55:56;;;;;;;;;;;;;;;;;;5066606;28;1601;-51
2021/08/02 15:58:21;;;;;;;;;;;;;;;;;;5067606;28;1342;-53
2021/08/02 16:00:53;;;;;;;;;;;;;;;;;;5066707;28;1906;-49
2021/08/02 16:03:21;;;;;;;;;;;;;;;;;;5067794;28;1139;-49
2021/08/02 16:05:49;;;;;;;;;;;;;;;;;;5065744;28;1573;-48
2021/08/02 16:08:14;;;;;;;;;;;;;;;;;;5065738;28;1374;-51
2021/08/02 16:10:39;;;;;;;;;;;;;;;;;;5061945;28;1554;-53
2021/08/02 16:13:05;;;;;;;;;;;;;;;;;;5067826;28;1306;-52
2021/08/02 16:15:33;;;;;;;;;;;;;;;;;;5068984;28;1104;-51
2021/08/02 16:18:00;;;;;;;;;;;;;;;;;;5062552;28;1566;-52
2021/08/02 16:20:25;;;;;;;;;;;;;;;;;;5067634;28;1906;-52
2021/08/02 16:22:51;;;;;;;;;;;;;;;;;;5063999;28;1347;-52
2021/08/02 16:25:16;;;;;;;;;;;;;;;;;;5067619;28;1280;-51
2021/08/02 16:27:42;;;;;;;;;;;;;;;;;;5063949;28;1601;-51
2021/08/02 16:30:08;;;;;;;;;;;;;;;;;;5067663;28;1085;-51
2021/08/02 16:32:33;;;;;;;;;;;;;;;;;;5067193;28;1487;-52
2021/08/02 16:34:58;;;;;;;;;;;;;;;;;;5064079;28;1567;-51
2021/08/02 16:37:23;;;;;;;;;;;;;;;;;;5067119;28;1350;-52
2021/08/02 16:39:49;;;;;;;;;;;;;;;;;;5067731;28;1971;-52
2021/08/02 16:42:14;;;;;;;;;;;;;;;;;;5064556;28;1711;-52
2021/08/02 16:44:39;;;;;;;;;;;;;;;;;;5064048;28;1537;-51
2021/08/02 16:47:04;;;;;;;;;;;;;;;;;;5066585;28;1216;-52
2021/08/02 16:49:29;;;;;;;;;;;;;;;;;;5063459;28;1342;-52
2021/08/02 16:51:54;;;;;;;;;;;;;;;;;;5064979;28;1560;-52
2021/08/02 16:54:20;;;;;;;;;;;;;;;;;;5064545;28;1437;-51
2021/08/02 16:56:45;;;;;;;;;;;;;;;;;;5062378;28;1565;-51
2021/08/02 16:59:10;;;;;;;;;;;;;;;;;;5062986;28;1355;-51